Time;durP1;ratioP1;P1;durP2;ratioP2;P2;SDS_P1;SDS_P2;PMS_P1;PMS_P2;Temp;Humidity;BMP_temperature;BMP_pressure;BME280_temperature;BME280_humidity;BME280_pressure;Samples;Min_cycle;Max_cycle;Signal;HPM_P1;HPM_P2
2023/05/14 00:00:34;;;;;;;9.98;8.65;;;15.70;96.10;;;;;;5012333;28;20033;-51
2023/05/14 00:03:20;;;;;;;9.27;8.45;;;15.70;95.90;;;;;;5010895;28;20057;-49
2023/05/14 00:06:07;;;;;;;10.15;8.80;;;15.70;96.00;;;;;;5010750;28;20017;-51
2023/05/14 00:08:53;;;;;;;10.00;9.00;;;15.60;96.20;;;;;;4990809;28;20034;-48
2023/05/14 00:11:39;;;;;;;10.65;8.60;;;15.50;96.70;;;;;;5003245;28;20040;-50
2023/05/14 00:14:25;;;;;;;10.27;9.15;;;15.50;96.90;;;;;;5011005;28;20026;-50
2023/05/14 00:17:11;;;;;;;10.18;8.85;;;15.50;97.00;;;;;;5010245;28;20025;-52
2023/05/14 00:19:58;;;;;;;9.63;8.73;;;15.50;97.20;;;;;;5010726;28;20038;-49
2023/05/14 00:22:44;;;;;;;9.45;8.38;;;15.40;97.30;;;;;;5010955;28;20032;-49
2023/05/14 00:25:30;;;;;;;10.02;9.02;;;15.40;97.50;;;;;;5010134;28;20026;-49
2023/05/14 00:28:16;;;;;;;14.95;8.65;;;15.40;97.70;;;;;;5008643;28;20037;-48
2023/05/14 00:31:02;;;;;;;10.18;9.10;;;15.40;98.00;;;;;;5010418;28;20029;-49
2023/05/14 00:33:48;;;;;;;9.50;8.50;;;15.30;98.00;;;;;;5010972;28;20573;-49
2023/05/14 00:36:34;;;;;;;9.98;8.68;;;15.30;98.20;;;;;;5009526;28;20458;-48
2023/05/14 00:39:20;;;;;;;9.63;8.73;;;15.30;98.30;;;;;;5010773;28;20057;-50
2023/05/14 00:42:06;;;;;;;9.35;8.45;;;15.30;98.50;;;;;;5010459;28;20029;-47
2023/05/14 00:44:52;;;;;;;9.40;8.50;;;15.40;98.30;;;;;;5010596;28;20107;-50
2023/05/14 00:47:38;;;;;;;9.63;8.70;;;15.30;98.20;;;;;;5010511;28;20510;-48
2023/05/14 00:50:25;;;;;;;10.18;9.18;;;15.30;98.20;;;;;;5009799;28;20061;-47
2023/05/14 00:53:11;;;;;;;10.00;9.10;;;15.30;98.30;;;;;;5010345;28;20163;-49
2023/05/14 00:55:58;;;;;;;10.45;8.88;;;15.30;98.20;;;;;;5009076;28;20029;-50
2023/05/14 00:58:44;;;;;;;10.30;9.30;;;15.30;98.30;;;;;;5009296;28;20030;-48
2023/05/14 01:01:30;;;;;;;10.57;8.73;;;15.30;98.30;;;;;;5010400;28;20092;-46
2023/05/14 01:04:16;;;;;;;10.18;9.20;;;15.20;98.40;;;;;;5010188;28;20041;-46
2023/05/14 01:07:05;;;;;;;10.48;9.38;;;15.20;98.50;;;;;;5010025;28;20087;-48
2023/05/14 01:10:01;;;;;;;9.75;8.50;;;15.20;98.60;;;;;;5001646;28;20510;-47
2023/05/14 01:12:59;;;;;;;11.13;8.50;;;15.20;98.60;;;;;;4990841;28;20026;-48
2023/05/14 01:15:46;;;;;;;11.00;9.18;;;15.30;98.50;;;;;;4990919;28;20372;-50
2023/05/14 01:18:33;;;;;;;10.70;9.60;;;15.30;98.40;;;;;;4990903;28;20113;-47
2023/05/14 01:21:41;;;;;;;9.73;8.82;;;15.30;98.50;;;;;;4989665;28;20031;-51
2023/05/14 01:24:27;;;;;;;10.23;9.02;;;15.20;98.50;;;;;;4999384;28;20080;-48
2023/05/14 01:27:35;;;;;;;10.20;9.20;;;15.20;98.80;;;;;;5009309;28;20525;-50
2023/05/14 01:30:29;;;;;;;10.70;8.77;;;15.20;98.70;;;;;;5012426;28;20595;-48
2023/05/14 01:33:17;;;;;;;10.50;9.45;;;15.20;98.70;;;;;;5012554;28;20045;-49
2023/05/14 01:36:04;;;;;;;10.20;9.20;;;15.10;98.70;;;;;;5014607;28;20379;-53
2023/05/14 01:38:51;;;;;;;9.57;8.68;;;15.10;98.90;;;;;;5011550;28;20434;-51
2023/05/14 01:41:38;;;;;;;9.63;8.73;;;15.10;98.90;;;;;;5014312;28;20026;-49
2023/05/14 01:44:24;;;;;;;9.52;8.63;;;15.10;98.80;;;;;;5013259;28;20038;-48
2023/05/14 01:47:10;;;;;;;10.23;9.32;;;15.00;99.00;;;;;;5013462;28;20018;-47
2023/05/14 01:49:56;;;;;;;10.55;9.30;;;15.10;98.90;;;;;;5013770;28;20041;-52
2023/05/14 01:52:42;;;;;;;10.23;9.25;;;15.10;98.90;;;;;;5011415;28;20034;-46
2023/05/14 01:55:28;;;;;;;9.98;9.07;;;15.20;98.90;;;;;;5013992;28;20487;-50
2023/05/14 01:58:14;;;;;;;10.38;9.35;;;15.20;98.70;;;;;;5013057;28;20081;-48
2023/05/14 02:01:00;;;;;;;10.60;9.50;;;15.20;98.70;;;;;;5012871;28;20045;-47
2023/05/14 02:03:46;;;;;;;11.45;9.55;;;15.20;98.60;;;;;;5013140;28;20030;-49
2023/05/14 02:06:32;;;;;;;10.20;9.20;;;15.20;98.70;;;;;;5012245;28;20112;-48
2023/05/14 02:09:18;;;;;;;9.68;8.75;;;15.10;98.80;;;;;;5011868;28;20037;-47
2023/05/14 02:12:04;;;;;;;9.70;8.73;;;15.10;98.80;;;;;;5011769;28;20088;-49
2023/05/14 02:14:50;;;;;;;10.35;9.27;;;15.10;98.70;;;;;;5013514;28;20695;-49
2023/05/14 02:17:36;;;;;;;11.38;9.18;;;15.10;98.60;;;;;;5011611;28;20453;-48
2023/05/14 02:20:22;;;;;;;10.82;9.40;;;15.10;98.60;;;;;;5013044;28;20379;-49
2023/05/14 02:23:08;;;;;;;10.13;9.13;;;15.00;98.60;;;;;;5012947;28;20104;-50
2023/05/14 02:25:54;;;;;;;10.02;8.93;;;15.00;98.70;;;;;;5013257;28;20021;-50
2023/05/14 02:28:40;;;;;;;10.57;9.57;;;15.00;98.70;;;;;;5013315;28;20037;-48
2023/05/14 02:31:26;;;;;;;10.65;9.57;;;15.00;98.70;;;;;;5014136;28;20414;-49
2023/05/14 02:34:12;;;;;;;10.95;9.93;;;15.00;98.60;;;;;;5010973;28;20034;-49
2023/05/14 02:36:58;;;;;;;10.35;9.35;;;15.00;98.50;;;;;;5013841;28;20042;-48
2023/05/14 02:39:44;;;;;;;11.07;9.98;;;15.00;98.50;;;;;;5017095;28;20057;-52
2023/05/14 02:42:30;;;;;;;11.00;9.90;;;15.00;98.70;;;;;;5021007;28;20033;-51
2023/05/14 02:45:16;;;;;;;11.02;9.05;;;15.00;98.70;;;;;;5018287;28;20381;-49
2023/05/14 02:48:02;;;;;;;11.25;10.07;;;14.90;98.80;;;;;;5012110;28;20092;-51
2023/05/14 02:50:51;;;;;;;10.55;9.48;;;14.90;98.80;;;;;;5012281;28;20030;-48
2023/05/14 02:53:37;;;;;;;10.50;9.50;;;14.90;99.10;;;;;;5012313;28;20171;-50
2023/05/14 02:56:23;;;;;;;10.82;9.73;;;15.00;98.80;;;;;;5010858;28;20041;-48
2023/05/14 02:59:09;;;;;;;11.02;9.77;;;15.00;98.70;;;;;;5011388;28;20041;-49
2023/05/14 03:01:55;;;;;;;10.32;9.32;;;15.00;98.80;;;;;;5012230;28;20026;-49
2023/05/14 03:04:41;;;;;;;11.18;9.98;;;15.10;98.80;;;;;;5012831;28;20084;-49
2023/05/14 03:07:27;;;;;;;11.25;9.60;;;15.00;98.70;;;;;;5011437;28;20026;-51
2023/05/14 03:10:13;;;;;;;10.85;9.75;;;15.00;98.80;;;;;;5010642;28;20406;-50
2023/05/14 03:12:59;;;;;;;10.60;9.60;;;15.00;98.90;;;;;;5010791;28;20030;-53
2023/05/14 03:15:45;;;;;;;11.20;10.00;;;15.00;99.00;;;;;;5011694;28;20030;-50
2023/05/14 03:18:33;;;;;;;10.82;9.73;;;14.80;99.80;;;;;;5011574;28;20033;-48
2023/05/14 03:21:19;;;;;;;11.07;9.95;;;14.70;99.90;;;;;;5011583;28;20053;-49
2023/05/14 03:24:05;;;;;;;11.75;10.63;;;14.70;99.90;;;;;;5011644;28;20026;-50
2023/05/14 03:26:52;;;;;;;11.55;10.43;;;14.60;99.90;;;;;;5011313;28;20383;-49
2023/05/14 03:29:38;;;;;;;11.45;10.25;;;14.60;99.90;;;;;;5011185;28;20096;-48
2023/05/14 03:32:24;;;;;;;11.05;10.05;;;14.50;99.90;;;;;;5011673;28;20030;-50
2023/05/14 03:35:10;;;;;;;11.65;9.60;;;14.50;99.90;;;;;;5011096;28;20041;-49
2023/05/14 03:37:58;;;;;;;11.52;10.32;;;14.50;99.90;;;;;;5011183;28;20044;-52
2023/05/14 03:40:44;;;;;;;11.77;10.60;;;14.50;99.90;;;;;;5011213;28;20029;-49
2023/05/14 03:43:30;;;;;;;11.82;10.27;;;14.40;99.90;;;;;;5010864;28;20550;-51
2023/05/14 03:46:16;;;;;;;11.73;10.55;;;14.40;99.90;;;;;;5011135;28;20014;-50
2023/05/14 03:49:02;;;;;;;11.13;10.00;;;14.30;99.90;;;;;;5012525;28;20060;-48
2023/05/14 03:51:48;;;;;;;10.95;9.75;;;14.40;99.90;;;;;;5012452;28;20034;-48
2023/05/14 03:54:34;;;;;;;12.18;10.20;;;14.40;99.90;;;;;;5011883;28;20609;-48
2023/05/14 03:57:20;;;;;;;14.10;9.95;;;14.40;99.90;;;;;;5009346;28;20455;-49
2023/05/14 04:00:07;;;;;;;11.10;9.98;;;14.40;99.90;;;;;;5010876;28;20049;-48
2023/05/14 04:02:53;;;;;;;11.45;10.35;;;14.40;99.90;;;;;;5011126;28;20454;-58
2023/05/14 04:05:39;;;;;;;12.00;10.80;;;14.40;99.90;;;;;;5011493;28;20045;-50
2023/05/14 04:08:25;;;;;;;12.38;10.93;;;14.40;99.90;;;;;;5010035;28;20108;-56
2023/05/14 04:11:11;;;;;;;11.60;10.38;;;14.40;99.90;;;;;;5011425;28;20030;-50
2023/05/14 04:13:57;;;;;;;10.13;9.10;;;14.40;99.90;;;;;;5011269;28;20033;-47
2023/05/14 04:16:43;;;;;;;10.77;9.65;;;14.50;99.90;;;;;;5010441;28;20737;-47
2023/05/14 04:19:29;;;;;;;13.00;10.13;;;14.60;99.90;;;;;;5011008;28;20498;-47
2023/05/14 04:22:15;;;;;;;11.88;10.77;;;14.60;99.90;;;;;;5010004;28;20112;-47
2023/05/14 04:25:01;;;;;;;12.07;10.40;;;14.60;99.90;;;;;;5011075;28;20104;-48
2023/05/14 04:27:46;;;;;;;13.43;10.30;;;14.70;99.90;;;;;;5008629;28;20030;-49
2023/05/14 04:30:32;;;;;;;10.55;9.40;;;14.80;99.90;;;;;;5011178;28;20058;-48
2023/05/14 04:33:18;;;;;;;11.10;9.93;;;14.80;99.90;;;;;;5010575;28;20029;-51
2023/05/14 04:36:05;;;;;;;10.75;9.70;;;14.90;99.90;;;;;;5009924;28;20507;-52
2023/05/14 04:38:51;;;;;;;10.20;9.20;;;14.90;99.90;;;;;;5010193;28;20042;-51
2023/05/14 04:41:37;;;;;;;11.32;9.90;;;14.90;99.90;;;;;;4990507;28;20026;-51
2023/05/14 04:44:23;;;;;;;12.13;10.13;;;15.00;99.80;;;;;;4991440;28;20116;-49
2023/05/14 04:47:09;;;;;;;11.00;10.00;;;15.00;99.50;;;;;;4990967;28;20027;-48
2023/05/14 04:49:56;;;;;;;13.02;10.18;;;14.90;99.40;;;;;;4992014;28;20027;-49
2023/05/14 04:52:42;;;;;;;11.40;10.27;;;14.90;99.50;;;;;;4992910;28;20029;-50
2023/05/14 04:55:28;;;;;;;11.30;9.88;;;14.90;99.40;;;;;;5011153;28;20112;-48
2023/05/14 04:58:14;;;;;;;13.00;11.48;;;14.90;99.30;;;;;;5009542;28;20396;-49
2023/05/14 05:01:01;;;;;;;13.43;11.02;;;15.00;99.50;;;;;;5010602;28;20033;-48
2023/05/14 05:03:47;;;;;;;11.82;10.48;;;15.00;99.00;;;;;;5009004;28;20030;-52
2023/05/14 05:06:33;;;;;;;12.82;10.88;;;14.90;98.90;;;;;;5010631;28;20022;-50
2023/05/14 05:09:19;;;;;;;11.88;10.73;;;14.90;99.10;;;;;;5010705;28;20123;-48
2023/05/14 05:12:06;;;;;;;12.20;10.75;;;14.90;99.00;;;;;;5011033;28;20592;-50
2023/05/14 05:14:51;;;;;;;11.82;10.25;;;14.80;99.10;;;;;;5013264;28;20038;-47
2023/05/14 05:17:37;;;;;;;13.00;10.18;;;14.70;99.10;;;;;;5014521;28;20113;-50
2023/05/14 05:20:24;;;;;;;10.63;9.60;;;14.70;99.10;;;;;;5022154;28;20040;-51
2023/05/14 05:23:10;;;;;;;10.27;9.18;;;14.80;99.10;;;;;;5017743;28;20040;-53
2023/05/14 05:25:56;;;;;;;10.43;9.43;;;14.80;98.90;;;;;;5023622;28;20404;-54
2023/05/14 05:28:42;;;;;;;11.75;10.65;;;14.90;98.90;;;;;;5022180;28;20434;-52
2023/05/14 05:31:28;;;;;;;9.85;8.90;;;15.00;98.70;;;;;;5015549;28;20030;-50
2023/05/14 05:34:14;;;;;;;10.85;9.38;;;15.10;98.80;;;;;;5014748;28;20072;-50
2023/05/14 05:37:00;;;;;;;10.70;9.70;;;15.20;98.50;;;;;;5012542;28;20097;-50
2023/05/14 05:39:47;;;;;;;10.20;9.30;;;15.20;98.40;;;;;;5013494;28;20041;-49
2023/05/14 05:42:33;;;;;;;13.40;9.13;;;15.30;98.50;;;;;;5012867;28;20030;-47
2023/05/14 05:45:19;;;;;;;10.75;9.68;;;15.30;98.50;;;;;;5013858;28;20133;-50
2023/05/14 05:48:05;;;;;;;9.95;8.95;;;15.40;98.30;;;;;;5012857;28;20041;-49
2023/05/14 05:50:51;;;;;;;10.30;9.30;;;15.50;98.10;;;;;;5012908;28;20137;-47
2023/05/14 05:53:37;;;;;;;10.02;9.00;;;15.60;98.00;;;;;;5012999;28;20034;-51
2023/05/14 05:56:23;;;;;;;10.70;9.57;;;15.60;97.90;;;;;;5012557;28;20033;-48
2023/05/14 05:59:09;;;;;;;11.30;9.60;;;15.60;97.70;;;;;;5013408;28;20041;-50
2023/05/14 06:01:55;;;;;;;10.98;9.38;;;15.70;97.30;;;;;;5014241;28;20040;-51
2023/05/14 06:04:41;;;;;;;10.18;8.70;;;15.80;97.30;;;;;;5013105;28;20113;-50
2023/05/14 06:07:27;;;;;;;9.52;8.57;;;16.10;97.10;;;;;;5013238;28;20060;-49
2023/05/14 06:10:12;;;;;;;10.88;9.60;;;16.30;97.00;;;;;;5012906;28;20072;-49
2023/05/14 06:12:58;;;;;;;11.88;10.15;;;16.40;96.60;;;;;;5014691;28;20026;-50
2023/05/14 06:15:44;;;;;;;10.52;9.52;;;16.50;96.40;;;;;;5013794;28;20663;-50
2023/05/14 06:18:30;;;;;;;9.40;8.40;;;16.70;95.80;;;;;;5016055;28;20100;-48
2023/05/14 06:21:17;;;;;;;9.60;8.68;;;16.80;95.70;;;;;;5015818;28;20026;-47
2023/05/14 06:24:03;;;;;;;9.23;8.27;;;16.90;95.60;;;;;;5015357;28;20494;-49
2023/05/14 06:26:49;;;;;;;9.82;8.93;;;17.10;95.50;;;;;;5015960;28;20253;-50
2023/05/14 06:29:36;;;;;;;9.32;8.43;;;17.20;95.20;;;;;;5018602;28;20037;-56
2023/05/14 06:32:22;;;;;;;10.25;9.15;;;17.20;95.10;;;;;;5013364;28;20091;-48
2023/05/14 06:35:08;;;;;;;11.43;9.63;;;17.30;94.80;;;;;;5018465;28;20545;-49
2023/05/14 06:37:54;;;;;;;9.98;9.00;;;17.30;94.60;;;;;;5012427;28;20163;-51
2023/05/14 06:40:40;;;;;;;9.48;8.57;;;17.40;94.50;;;;;;5012787;28;20026;-50
2023/05/14 06:43:26;;;;;;;9.85;8.43;;;17.50;94.70;;;;;;5012473;28;20030;-52
2023/05/14 06:46:12;;;;;;;19.98;17.80;;;17.60;94.40;;;;;;5012098;28;20525;-51
2023/05/14 06:48:58;;;;;;;26.30;18.55;;;17.70;94.20;;;;;;5013191;28;20038;-50
2023/05/14 06:51:44;;;;;;;13.98;11.57;;;17.60;94.10;;;;;;5012297;28;20037;-50
2023/05/14 06:54:30;;;;;;;11.52;9.57;;;17.60;94.10;;;;;;5012560;28;20125;-52
2023/05/14 06:57:16;;;;;;;10.50;9.50;;;17.60;93.90;;;;;;5011194;28;20045;-51
2023/05/14 07:00:03;;;;;;;13.02;10.80;;;17.80;93.90;;;;;;5011788;28;20044;-54
2023/05/14 07:02:49;;;;;;;23.45;15.93;;;17.80;93.60;;;;;;4992776;28;20045;-50
2023/05/14 07:05:35;;;;;;;17.48;14.73;;;17.70;93.80;;;;;;4992791;28;20022;-54
2023/05/14 07:08:21;;;;;;;15.52;12.60;;;17.60;93.70;;;;;;4991670;28;20030;-51
2023/05/14 07:11:06;;;;;;;10.35;9.18;;;17.60;93.50;;;;;;4993004;28;20167;-54
2023/05/14 07:13:52;;;;;;;10.15;9.25;;;17.50;93.90;;;;;;4992921;28;20081;-51
2023/05/14 07:16:40;;;;;;;10.77;9.65;;;17.40;94.10;;;;;;5006027;28;20538;-51
2023/05/14 07:19:27;;;;;;;10.07;8.80;;;17.50;93.90;;;;;;5011933;28;20038;-52
2023/05/14 07:22:13;;;;;;;11.05;9.40;;;17.50;94.00;;;;;;5011653;28;20491;-52
2023/05/14 07:24:59;;;;;;;10.75;9.65;;;17.60;93.50;;;;;;5011242;28;20380;-51
2023/05/14 07:27:45;;;;;;;10.25;9.25;;;17.70;93.40;;;;;;5010952;28;20379;-52
2023/05/14 07:30:31;;;;;;;10.95;8.98;;;17.80;93.70;;;;;;5011233;28;20033;-52
2023/05/14 07:33:17;;;;;;;10.60;9.52;;;17.90;93.50;;;;;;5011003;28;20494;-53
2023/05/14 07:36:04;;;;;;;10.40;8.93;;;17.90;92.90;;;;;;5010853;28;20068;-51
2023/05/14 07:38:50;;;;;;;11.00;9.57;;;17.90;93.10;;;;;;5011651;28;20041;-48
2023/05/14 07:41:36;;;;;;;9.38;8.55;;;17.90;93.20;;;;;;5011399;28;20029;-53
2023/05/14 07:44:21;;;;;;;10.90;9.50;;;17.80;93.60;;;;;;5011351;28;20033;-53
2023/05/14 07:47:08;;;;;;;10.88;8.77;;;17.80;93.60;;;;;;5010853;28;20029;-52
2023/05/14 07:49:55;;;;;;;8.90;8.00;;;17.80;93.60;;;;;;5010964;28;20083;-52
2023/05/14 07:52:41;;;;;;;10.73;8.63;;;18.00;93.80;;;;;;5011071;28;20026;-50
2023/05/14 07:55:27;;;;;;;9.43;8.43;;;18.20;93.30;;;;;;5010770;28;20030;-51
2023/05/14 07:58:13;;;;;;;10.38;9.38;;;18.30;93.10;;;;;;5008510;28;20398;-49
2023/05/14 08:01:00;;;;;;;10.55;8.57;;;18.40;93.10;;;;;;5010638;28;20035;-51
2023/05/14 08:03:46;;;;;;;9.75;8.80;;;18.40;93.00;;;;;;5010874;28;20048;-51
2023/05/14 08:06:32;;;;;;;9.60;8.70;;;18.50;92.60;;;;;;4991762;28;20034;-54
2023/05/14 08:09:18;;;;;;;9.57;8.68;;;18.50;92.90;;;;;;4990723;28;20030;-54
2023/05/14 08:12:05;;;;;;;10.23;9.18;;;18.50;93.10;;;;;;4990643;28;20031;-54
2023/05/14 08:14:51;;;;;;;14.23;8.00;;;18.60;93.00;;;;;;4991377;28;20168;-54
2023/05/14 08:17:37;;;;;;;9.18;8.38;;;18.60;93.40;;;;;;4991101;28;20129;-50
2023/05/14 08:20:23;;;;;;;10.43;8.40;;;18.70;93.40;;;;;;5004228;28;20144;-51
2023/05/14 08:23:09;;;;;;;21.45;17.67;;;18.70;93.00;;;;;;5009757;28;20044;-51
2023/05/14 08:25:55;;;;;;;14.50;13.27;;;18.70;92.80;;;;;;5011599;28;20026;-51
2023/05/14 08:28:41;;;;;;;11.75;10.55;;;18.80;92.60;;;;;;5010764;28;20064;-49
2023/05/14 08:31:27;;;;;;;13.10;8.90;;;18.70;92.90;;;;;;5010466;28;20034;-48
2023/05/14 08:34:13;;;;;;;10.07;9.18;;;18.60;92.60;;;;;;5010855;28;20502;-48
2023/05/14 08:36:59;;;;;;;9.48;8.57;;;18.60;92.70;;;;;;5009371;28;20034;-50
2023/05/14 08:39:45;;;;;;;13.45;8.48;;;18.70;93.30;;;;;;5009581;28;20079;-50
2023/05/14 08:42:32;;;;;;;10.60;8.20;;;18.60;92.80;;;;;;5010793;28;20022;-52
2023/05/14 08:45:32;;;;;;;7.57;6.82;;;18.40;92.40;;;;;;5010397;28;20022;-53
2023/05/14 08:48:22;;;;;;;9.10;7.43;;;18.40;92.10;;;;;;5002116;28;20048;-48
2023/05/14 08:51:08;;;;;;;8.40;7.32;;;18.50;91.90;;;;;;5008173;28;20044;-52
2023/05/14 08:53:55;;;;;;;9.25;8.23;;;18.60;91.80;;;;;;5010835;28;20529;-54
2023/05/14 08:56:44;;;;;;;9.18;7.25;;;18.70;91.00;;;;;;5007166;28;20042;-52
2023/05/14 08:59:30;;;;;;;9.10;8.20;;;18.80;90.80;;;;;;5011349;28;20129;-51
2023/05/14 09:02:19;;;;;;;8.45;7.65;;;18.70;91.30;;;;;;5005418;28;20037;-52
2023/05/14 09:05:08;;;;;;;8.73;7.13;;;18.80;91.60;;;;;;5001277;28;20037;-51
2023/05/14 09:07:54;;;;;;;8.50;7.70;;;19.00;91.60;;;;;;5003165;28;20026;-52
2023/05/14 09:10:40;;;;;;;8.35;7.53;;;19.10;91.50;;;;;;5008174;28;20450;-50
2023/05/14 09:13:26;;;;;;;9.57;8.50;;;19.40;91.40;;;;;;5011384;28;20514;-51
2023/05/14 09:16:12;;;;;;;9.63;7.95;;;19.40;91.30;;;;;;5004780;28;20034;-51
2023/05/14 09:18:58;;;;;;;8.65;7.85;;;19.80;90.90;;;;;;5021010;28;20056;-50
2023/05/14 09:21:45;;;;;;;8.95;8.05;;;19.70;90.30;;;;;;5034967;28;20084;-48
2023/05/14 09:24:30;;;;;;;8.00;7.30;;;19.90;89.80;;;;;;5030528;28;20025;-49
2023/05/14 09:27:20;;;;;;;8.82;7.93;;;20.00;90.20;;;;;;5031305;28;20422;-51
2023/05/14 09:30:11;;;;;;;9.73;8.00;;;20.20;89.40;;;;;;4992611;28;20026;-52
2023/05/14 09:32:56;;;;;;;10.00;8.20;;;19.70;89.00;;;;;;5002561;28;20156;-49
2023/05/14 09:35:43;;;;;;;9.23;8.20;;;19.70;89.50;;;;;;5009800;28;20062;-52
2023/05/14 09:38:29;;;;;;;9.93;7.78;;;19.60;87.50;;;;;;5006924;28;20037;-52
2023/05/14 09:41:15;;;;;;;9.10;8.18;;;19.80;87.00;;;;;;5026113;28;20083;-52
2023/05/14 09:44:01;;;;;;;10.15;8.35;;;20.10;87.20;;;;;;5022810;28;20502;-49
2023/05/14 09:46:48;;;;;;;10.82;8.98;;;20.00;86.80;;;;;;5009837;28;20120;-49
2023/05/14 09:49:34;;;;;;;9.10;8.15;;;19.80;88.10;;;;;;5013152;28;20100;-49
2023/05/14 09:52:23;;;;;;;10.02;8.98;;;19.60;88.60;;;;;;5029500;28;20029;-49
2023/05/14 09:55:09;;;;;;;9.23;7.90;;;19.90;88.10;;;;;;5011089;28;20040;-55
2023/05/14 09:57:58;;;;;;;9.95;7.43;;;20.00;87.20;;;;;;5011292;28;20096;-54
2023/05/14 10:00:46;;;;;;;9.63;7.95;;;20.20;86.20;;;;;;5005784;28;20031;-54
2023/05/14 10:03:32;;;;;;;11.80;9.50;;;20.40;85.20;;;;;;5008652;28;20030;-52
2023/05/14 10:06:22;;;;;;;9.07;8.13;;;20.60;85.70;;;;;;4995383;28;20030;-50
2023/05/14 10:09:14;;;;;;;8.73;7.93;;;20.80;86.40;;;;;;5000082;28;20034;-52
2023/05/14 10:12:00;;;;;;;9.07;7.82;;;21.00;84.80;;;;;;5012536;28;20052;-51
2023/05/14 10:14:49;;;;;;;9.98;8.95;;;20.40;84.00;;;;;;5012777;28;20030;-48
2023/05/14 10:17:37;;;;;;;12.00;8.63;;;20.20;84.90;;;;;;5012052;28;20053;-48
2023/05/14 10:20:25;;;;;;;8.68;7.82;;;20.30;85.90;;;;;;5012526;28;20038;-48
2023/05/14 10:23:11;;;;;;;8.48;7.57;;;19.90;84.20;;;;;;5021945;28;20021;-47
2023/05/14 10:25:59;;;;;;;9.68;7.28;;;19.90;87.50;;;;;;5016095;28;20089;-48
2023/05/14 10:28:45;;;;;;;8.02;7.22;;;20.40;84.70;;;;;;5015262;28;20041;-49
2023/05/14 10:31:46;;;;;;;8.25;7.00;;;20.90;83.50;;;;;;5013625;28;20030;-49
2023/05/14 10:34:45;;;;;;;8.05;7.15;;;21.50;81.60;;;;;;4993580;28;20026;-49
2023/05/14 10:37:32;;;;;;;9.00;7.45;;;21.90;81.00;;;;;;4992718;28;20085;-52
2023/05/14 10:40:19;;;;;;;7.95;7.10;;;22.00;79.80;;;;;;5001291;28;20096;-50
2023/05/14 10:43:07;;;;;;;8.15;7.35;;;22.10;78.10;;;;;;4998815;28;20046;-51
2023/05/14 10:45:54;;;;;;;10.00;7.30;;;21.90;77.10;;;;;;5008323;28;20028;-48
2023/05/14 10:48:42;;;;;;;10.20;7.22;;;21.90;77.80;;;;;;5008813;28;20030;-50
2023/05/14 10:51:30;;;;;;;10.73;7.35;;;22.10;77.70;;;;;;5007293;28;20041;-49
2023/05/14 10:54:16;;;;;;;7.50;6.80;;;22.20;77.60;;;;;;5008139;28;20022;-49
2023/05/14 10:57:02;;;;;;;10.48;7.93;;;22.20;77.40;;;;;;5011359;28;20040;-52
2023/05/14 10:59:52;;;;;;;13.65;7.75;;;22.10;77.70;;;;;;5007284;28;20034;-50
2023/05/14 11:02:43;;;;;;;7.32;6.63;;;22.10;77.90;;;;;;5009847;28;20080;-50
2023/05/14 11:05:30;;;;;;;7.85;7.10;;;22.20;76.50;;;;;;5001710;28;20521;-47
2023/05/14 11:08:16;;;;;;;10.32;6.63;;;22.30;76.30;;;;;;5001821;28;20116;-46
2023/05/14 11:11:02;;;;;;;8.27;7.20;;;22.30;76.50;;;;;;4992509;28;20403;-52
2023/05/14 11:13:50;;;;;;;7.35;6.63;;;22.00;76.10;;;;;;5005969;28;20087;-48
2023/05/14 11:16:36;;;;;;;8.27;7.47;;;21.80;77.40;;;;;;5005664;28;20083;-47
2023/05/14 11:19:22;;;;;;;8.35;7.10;;;21.80;78.00;;;;;;5011276;28;20022;-49
2023/05/14 11:22:08;;;;;;;8.10;6.97;;;21.90;77.70;;;;;;5008336;28;20018;-49
2023/05/14 11:24:54;;;;;;;9.68;7.50;;;22.00;77.20;;;;;;4999705;28;20021;-46
2023/05/14 11:27:42;;;;;;;8.82;6.20;;;21.70;76.40;;;;;;5011704;28;20509;-45
2023/05/14 11:30:30;;;;;;;7.65;6.95;;;21.50;78.20;;;;;;5012292;28;20447;-46
2023/05/14 11:33:17;;;;;;;9.13;7.65;;;21.50;78.70;;;;;;5005116;28;20034;-45
2023/05/14 11:36:03;;;;;;;11.95;8.00;;;21.40;80.30;;;;;;5004682;28;20125;-47
2023/05/14 11:38:51;;;;;;;10.02;8.90;;;21.50;81.10;;;;;;5010283;28;20065;-49
2023/05/14 11:41:46;;;;;;;11.85;8.23;;;21.50;79.80;;;;;;5010191;28;20037;-51
2023/05/14 11:44:32;;;;;;;13.07;10.95;;;21.10;79.50;;;;;;5009214;28;20037;-47
2023/05/14 11:47:19;;;;;;;11.52;8.77;;;20.90;79.90;;;;;;5008339;28;20034;-50
2023/05/14 11:50:06;;;;;;;8.25;7.55;;;20.90;80.20;;;;;;5000896;28;20044;-51
2023/05/14 11:52:56;;;;;;;8.85;7.53;;;20.80;80.60;;;;;;5010012;28;20121;-49
2023/05/14 11:55:42;;;;;;;9.35;8.05;;;20.70;80.60;;;;;;5009254;28;20065;-50
2023/05/14 11:58:32;;;;;;;11.60;8.18;;;20.50;81.30;;;;;;5010843;28;20107;-49
2023/05/14 12:01:18;;;;;;;9.35;8.45;;;20.50;80.90;;;;;;5010755;28;20088;-50
2023/05/14 12:04:04;;;;;;;8.63;7.60;;;20.30;80.30;;;;;;5010527;28;20026;-48
2023/05/14 12:06:53;;;;;;;10.18;8.25;;;20.30;80.50;;;;;;5010879;28;20025;-47
2023/05/14 12:09:48;;;;;;;10.88;8.90;;;20.30;80.00;;;;;;5010725;28;20121;-53
2023/05/14 12:12:38;;;;;;;9.10;8.13;;;20.20;79.70;;;;;;5003853;28;20028;-47
2023/05/14 12:15:25;;;;;;;10.63;7.75;;;20.20;80.60;;;;;;4997255;28;20427;-49
2023/05/14 12:18:11;;;;;;;11.10;8.02;;;20.30;81.50;;;;;;5009813;28;20038;-51
2023/05/14 12:21:04;;;;;;;9.50;8.23;;;20.40;80.00;;;;;;5006939;28;20402;-48
2023/05/14 12:23:57;;;;;;;9.50;8.40;;;20.30;79.80;;;;;;5004054;28;20487;-50
2023/05/14 12:26:48;;;;;;;8.70;7.35;;;20.30;80.10;;;;;;5009413;28;20674;-47
2023/05/14 12:29:42;;;;;;;12.60;7.40;;;20.40;80.60;;;;;;5010506;28;20026;-49
2023/05/14 12:32:31;;;;;;;7.72;6.93;;;20.50;79.70;;;;;;5009094;28;20034;-47
2023/05/14 12:35:17;;;;;;;7.75;6.95;;;20.60;79.80;;;;;;5007950;28;20600;-47
2023/05/14 12:38:03;;;;;;;8.68;7.22;;;20.70;79.30;;;;;;5010988;28;20030;-48
2023/05/14 12:40:49;;;;;;;8.43;7.65;;;20.70;79.10;;;;;;4991382;28;20038;-46
2023/05/14 12:43:34;;;;;;;9.52;7.53;;;20.70;78.50;;;;;;4999643;28;20034;-46
2023/05/14 12:46:21;;;;;;;8.00;7.20;;;20.60;78.00;;;;;;4998575;28;20026;-47
2023/05/14 12:49:07;;;;;;;10.30;7.43;;;20.60;77.90;;;;;;4997574;28;20045;-46
2023/05/14 12:51:53;;;;;;;9.15;7.50;;;20.70;78.60;;;;;;4991251;28;20072;-47
2023/05/14 12:54:40;;;;;;;10.20;9.23;;;20.80;79.10;;;;;;5008128;28;20045;-46
2023/05/14 12:57:27;;;;;;;14.18;11.43;;;20.90;79.10;;;;;;5005301;28;20038;-47
2023/05/14 13:00:14;;;;;;;13.40;10.43;;;21.00;78.60;;;;;;5011423;28;20379;-48
2023/05/14 13:03:02;;;;;;;21.27;15.52;;;20.90;78.30;;;;;;4999375;28;20620;-48
2023/05/14 13:05:50;;;;;;;11.07;8.35;;;20.90;79.20;;;;;;4987524;28;20029;-47
2023/05/14 13:08:36;;;;;;;9.57;7.65;;;21.00;77.40;;;;;;5010170;28;20030;-49
2023/05/14 13:11:22;;;;;;;9.10;7.47;;;21.10;77.60;;;;;;5010497;28;20072;-48
2023/05/14 13:14:08;;;;;;;8.00;7.20;;;21.00;77.60;;;;;;5010374;28;20041;-48
2023/05/14 13:16:54;;;;;;;9.48;7.10;;;21.20;77.30;;;;;;5010067;28;20100;-50
2023/05/14 13:19:40;;;;;;;7.55;6.85;;;21.10;76.80;;;;;;5009350;28;20048;-51
2023/05/14 13:22:26;;;;;;;10.73;8.15;;;21.20;77.20;;;;;;5009017;28;20049;-58
2023/05/14 13:25:12;;;;;;;8.77;7.72;;;21.50;77.10;;;;;;4990666;28;20210;-60
2023/05/14 13:27:58;;;;;;;8.55;6.47;;;21.90;77.40;;;;;;4990926;28;20395;-46
2023/05/14 13:31:09;;;;;;;8.10;6.85;;;22.20;76.50;;;;;;5005340;28;20064;-46
2023/05/14 13:33:56;;;;;;;10.55;7.38;;;22.40;76.00;;;;;;5014107;28;20018;-48
2023/05/14 13:36:42;;;;;;;9.43;6.53;;;22.50;77.10;;;;;;5013833;28;20064;-49
2023/05/14 13:39:28;;;;;;;7.90;6.95;;;22.50;75.70;;;;;;5013840;28;20037;-47
2023/05/14 13:42:14;;;;;;;7.07;6.38;;;22.60;75.90;;;;;;5013916;28;20616;-47
2023/05/14 13:45:06;;;;;;;11.02;6.97;;;22.70;76.40;;;;;;5013767;28;20442;-47
2023/05/14 13:47:52;;;;;;;6.55;5.90;;;23.10;75.20;;;;;;5012318;28;20026;-48
2023/05/14 13:50:38;;;;;;;10.52;9.45;;;23.50;74.10;;;;;;5013662;28;20025;-47
2023/05/14 13:53:25;;;;;;;7.97;6.38;;;23.90;73.00;;;;;;5015667;28;20026;-47
2023/05/14 13:56:11;;;;;;;7.40;5.88;;;24.40;71.90;;;;;;5014654;28;20056;-47
2023/05/14 13:58:57;;;;;;;8.85;6.90;;;24.50;71.80;;;;;;5010882;28;20034;-47
2023/05/14 14:01:43;;;;;;;6.88;5.97;;;24.80;72.40;;;;;;5012838;28;20172;-47
2023/05/14 14:04:29;;;;;;;7.28;6.57;;;25.00;72.00;;;;;;5015377;28;20034;-46
2023/05/14 14:07:15;;;;;;;11.05;6.63;;;25.20;70.10;;;;;;5012210;28;20091;-47
2023/05/14 14:10:01;;;;;;;7.88;6.55;;;25.20;70.00;;;;;;5012137;28;20030;-48
2023/05/14 14:12:47;;;;;;;8.20;6.30;;;25.00;70.50;;;;;;5014761;28;20034;-49
2023/05/14 14:15:34;;;;;;;7.32;6.63;;;24.90;72.00;;;;;;5013341;28;20034;-49
2023/05/14 14:18:20;;;;;;;6.85;6.20;;;24.80;73.50;;;;;;5013373;28;20045;-47